Walnut Hills, Ohio
Current Conditions -  °F | °C
As of 7:53 AM on Sunday 23 Nov 2014 (Local Time) from KLUK Reporting Station
Overcast Overcast  
Wind Chill: 44°   Ceiling: 4000
Heat Index: 47°   Visibility: 10mi
Dew Point: 40°   Wind: 6mph
Humidity: 77%   Direction: 220°SW
Pressure: 30.01"   Gusts: NA
Location:  39.1273°N, 84.4839°W
Report Text: KLUK 231253Z 22005KT 10SM BKN040 OVC070 08/04 A3001 RMK AO2 RAB43E52 SLP163 P0000 T00830044
Loading
Personal Weather Stations






























Interactive Weather Map New forecast layout! Learn more

10-Day Weather Forecast

Advertisements
Track Severe Weather on mobile